createdAt,value
2018-02-09T00:01:37.658Z,5.53
2018-02-09T00:04:05.626Z,7.87
2018-02-09T00:06:33.591Z,31.53
2018-02-09T00:09:01.655Z,9.23
2018-02-09T00:11:29.630Z,12.47
2018-02-09T00:13:57.603Z,11.80
2018-02-09T00:16:25.648Z,5.50
2018-02-09T00:18:53.670Z,8.60
2018-02-09T00:21:21.698Z,6.70
2018-02-09T00:23:49.638Z,7.97
2018-02-09T00:26:17.655Z,8.53
2018-02-09T00:28:45.646Z,8.93
2018-02-09T00:31:13.650Z,8.20
2018-02-09T00:33:41.631Z,8.83
2018-02-09T00:36:09.620Z,8.47
2018-02-09T00:38:37.648Z,8.33
2018-02-09T00:41:05.666Z,5.63
2018-02-09T00:43:33.694Z,11.00
2018-02-09T00:46:02.506Z,5.73
2018-02-09T00:48:30.522Z,6.10
2018-02-09T00:50:58.567Z,9.37
2018-02-09T00:53:26.614Z,8.53
2018-02-09T00:55:54.604Z,6.90
2018-02-09T00:58:22.610Z,9.80
2018-02-09T01:00:50.602Z,13.73
2018-02-09T01:03:18.504Z,22.10
2018-02-09T01:05:46.463Z,10.30
2018-02-09T01:08:14.437Z,18.00
2018-02-09T01:10:42.479Z,21.33
2018-02-09T01:13:10.432Z,22.13
2018-02-09T01:15:38.464Z,13.80
2018-02-09T01:18:06.475Z,28.40
2018-02-09T01:20:34.379Z,9.17
2018-02-09T01:23:02.423Z,9.63
2018-02-09T01:25:30.462Z,10.50
2018-02-09T01:27:58.465Z,14.37
2018-02-09T01:30:26.430Z,13.50
2018-02-09T01:32:54.449Z,15.20
2018-02-09T01:35:22.422Z,12.20
2018-02-09T01:37:50.476Z,8.07
2018-02-09T01:40:18.373Z,5.03
2018-02-09T01:42:46.376Z,4.80
2018-02-09T01:45:14.339Z,4.90
2018-02-09T01:47:43.084Z,6.93
2018-02-09T01:50:17.095Z,10.17
2018-02-09T01:52:45.086Z,8.10
2018-02-09T01:55:13.205Z,5.93
2018-02-09T01:57:41.202Z,5.00
2018-02-09T02:00:09.219Z,25.17
2018-02-09T02:02:37.218Z,14.30
2018-02-09T02:05:05.197Z,11.30
2018-02-09T02:07:33.202Z,9.40
2018-02-09T02:10:01.209Z,8.30
2018-02-09T02:12:29.206Z,7.17
2018-02-09T02:14:57.242Z,9.27
2018-02-09T02:17:25.223Z,7.60
2018-02-09T02:19:53.257Z,13.77
2018-02-09T02:22:21.201Z,9.73
2018-02-09T02:24:49.279Z,8.27
2018-02-09T02:27:17.223Z,10.33
2018-02-09T02:29:45.175Z,13.60
2018-02-09T02:32:13.233Z,4.37
2018-02-09T02:34:41.191Z,11.60
2018-02-09T02:37:09.203Z,11.80
2018-02-09T02:39:37.264Z,7.40
2018-02-09T02:42:05.326Z,11.17
2018-02-09T02:44:33.379Z,9.07
2018-02-09T02:47:01.393Z,9.60
2018-02-09T02:49:29.757Z,9.03
2018-02-09T02:51:58.270Z,8.17
2018-02-09T02:54:26.308Z,9.90
2018-02-09T02:56:54.267Z,8.33
2018-02-09T02:59:22.254Z,10.20
2018-02-09T03:01:50.238Z,8.53
2018-02-09T03:04:18.161Z,9.67
2018-02-09T03:06:46.165Z,13.90
2018-02-09T03:09:14.178Z,8.10
2018-02-09T03:11:42.239Z,7.67
2018-02-09T03:14:10.286Z,7.23
2018-02-09T03:16:38.266Z,9.13
2018-02-09T03:19:06.314Z,7.43
2018-02-09T03:21:34.317Z,7.30
2018-02-09T03:24:02.346Z,6.30
2018-02-09T03:26:30.271Z,5.80
2018-02-09T03:28:58.184Z,5.73
2018-02-09T03:31:26.052Z,6.57
2018-02-09T03:33:53.987Z,5.20
2018-02-09T03:36:21.946Z,7.10
2018-02-09T03:38:49.913Z,6.57
2018-02-09T03:41:17.834Z,5.27
2018-02-09T03:43:45.802Z,5.57
2018-02-09T03:46:13.790Z,5.67
2018-02-09T03:48:41.782Z,5.57
2018-02-09T03:51:09.993Z,4.30
2018-02-09T03:53:37.946Z,5.97
2018-02-09T03:56:05.950Z,9.50
2018-02-09T03:58:33.933Z,13.83
2018-02-09T04:01:01.921Z,8.57
2018-02-09T04:03:29.943Z,7.63
2018-02-09T04:05:57.936Z,5.80
2018-02-09T04:08:25.900Z,7.90
2018-02-09T04:10:53.936Z,6.50
2018-02-09T04:13:21.931Z,8.57
2018-02-09T04:15:49.902Z,8.87
2018-02-09T04:18:17.894Z,7.77
2018-02-09T04:20:45.982Z,8.77
2018-02-09T04:23:13.966Z,9.77
2018-02-09T04:25:41.955Z,8.37
2018-02-09T04:28:09.969Z,10.60
2018-02-09T04:30:38.040Z,10.63
2018-02-09T04:33:06.063Z,8.40
2018-02-09T04:35:34.039Z,11.03
2018-02-09T04:38:01.946Z,11.33
2018-02-09T04:40:29.938Z,10.33
2018-02-09T04:42:57.921Z,11.50
2018-02-09T04:45:27.211Z,13.57
2018-02-09T04:47:55.154Z,12.93
2018-02-09T04:50:23.127Z,16.30
2018-02-09T04:52:51.374Z,13.03
2018-02-09T04:55:19.393Z,17.73
2018-02-09T04:57:47.372Z,39.43
2018-02-09T05:00:15.387Z,28.43
2018-02-09T05:02:43.382Z,28.23
2018-02-09T05:05:11.402Z,25.70
2018-02-09T05:07:39.454Z,26.23
2018-02-09T05:10:07.419Z,23.13
2018-02-09T05:12:35.406Z,21.47
2018-02-09T05:15:03.360Z,144.17
2018-02-09T05:17:31.315Z,22.70
2018-02-09T05:19:59.313Z,22.10
2018-02-09T05:22:27.402Z,23.70
2018-02-09T05:24:55.414Z,13.03
2018-02-09T05:27:23.400Z,14.20
2018-02-09T05:29:51.368Z,14.10
2018-02-09T05:32:19.288Z,12.90
2018-02-09T05:34:47.267Z,14.40
2018-02-09T05:37:15.282Z,17.60
2018-02-09T05:39:43.303Z,20.73
2018-02-09T05:42:11.306Z,27.20
2018-02-09T05:44:39.321Z,40.67
2018-02-09T05:47:07.332Z,28.90
2018-02-09T05:49:35.335Z,241.10
2018-02-09T05:52:03.340Z,29.80
2018-02-09T05:54:31.847Z,22.20
2018-02-09T05:56:59.859Z,18.13
2018-02-09T05:59:27.827Z,37.27
2018-02-09T06:01:55.730Z,41.00
2018-02-09T06:04:23.711Z,30.40
2018-02-09T06:06:51.706Z,31.40
2018-02-09T06:09:19.587Z,28.03
2018-02-09T06:11:47.567Z,30.83
2018-02-09T06:14:15.903Z,29.43
2018-02-09T06:16:43.967Z,36.80
2018-02-09T06:19:11.991Z,44.70
2018-02-09T06:21:40.017Z,48.10
2018-02-09T06:24:08.063Z,45.60
2018-02-09T06:26:36.084Z,46.63
2018-02-09T06:29:04.660Z,41.47
2018-02-09T06:31:33.620Z,27.30
2018-02-09T06:34:01.737Z,20.70
2018-02-09T06:36:29.857Z,17.77
2018-02-09T06:38:57.945Z,27.17
2018-02-09T06:41:25.980Z,32.97
2018-02-09T06:43:54.032Z,26.90
2018-02-09T06:46:22.051Z,52.97
2018-02-09T06:48:50.107Z,47.17
2018-02-09T06:51:18.162Z,46.60
2018-02-09T06:53:46.208Z,40.97
2018-02-09T06:56:14.683Z,47.33
2018-02-09T06:58:42.538Z,52.63
2018-02-09T07:01:10.555Z,38.53
2018-02-09T07:03:38.547Z,45.57
2018-02-09T07:06:06.546Z,40.67
2018-02-09T07:08:34.631Z,34.87
2018-02-09T07:11:02.590Z,32.23
2018-02-09T07:13:30.793Z,29.97
2018-02-09T07:15:59.277Z,27.90
2018-02-09T07:18:27.845Z,29.30
2018-02-09T07:20:56.557Z,27.80
2018-02-09T07:23:24.651Z,20.10
2018-02-09T07:25:52.650Z,20.57
2018-02-09T07:28:21.862Z,54.97
2018-02-09T07:30:50.961Z,69.50
2018-02-09T07:33:19.545Z,43.53
2018-02-09T07:35:47.508Z,46.67
2018-02-09T07:38:15.552Z,35.93
2018-02-09T07:40:44.182Z,36.23
2018-02-09T07:43:12.232Z,46.17
2018-02-09T07:45:40.249Z,44.97
2018-02-09T07:48:08.234Z,32.33
2018-02-09T07:50:36.248Z,30.23
2018-02-09T07:53:04.161Z,44.70
2018-02-09T07:55:32.149Z,37.50
2018-02-09T07:58:00.694Z,36.83
2018-02-09T08:00:28.654Z,39.73
2018-02-09T08:02:56.701Z,38.33
2018-02-09T08:05:24.685Z,40.23
2018-02-09T08:07:52.635Z,46.40
2018-02-09T08:10:20.596Z,54.73
2018-02-09T08:12:48.599Z,74.73
2018-02-09T08:15:16.552Z,27.10
2018-02-09T08:17:44.579Z,24.00
2018-02-09T08:20:12.517Z,33.30
2018-02-09T08:22:40.538Z,34.17
2018-02-09T08:25:08.522Z,29.93
2018-02-09T08:27:36.525Z,101.30
2018-02-09T08:30:04.592Z,23.80
2018-02-09T08:32:32.542Z,23.37
2018-02-09T08:35:00.607Z,35.70
2018-02-09T08:37:28.581Z,20.23
2018-02-09T08:39:56.591Z,16.97
2018-02-09T08:42:24.492Z,10.47
2018-02-09T08:44:52.386Z,7.97
2018-02-09T08:47:20.403Z,22.83
2018-02-09T08:49:48.393Z,11.60
2018-02-09T08:52:16.409Z,9.33
2018-02-09T08:54:44.414Z,16.03
2018-02-09T08:57:12.409Z,9.17
2018-02-09T08:59:41.223Z,8.87
2018-02-09T09:02:09.196Z,11.90
2018-02-09T09:04:37.167Z,9.17
2018-02-09T09:07:05.168Z,23.67
2018-02-09T09:09:33.143Z,16.97
2018-02-09T09:12:01.232Z,7.40
2018-02-09T09:14:29.239Z,11.63
2018-02-09T09:16:57.228Z,10.30
2018-02-09T09:19:25.192Z,14.90
2018-02-09T09:21:53.183Z,14.10
2018-02-09T09:24:21.262Z,8.87
2018-02-09T09:26:49.292Z,8.40
2018-02-09T09:29:17.276Z,7.60
2018-02-09T09:31:45.287Z,13.20
2018-02-09T09:34:13.114Z,9.33
2018-02-09T09:36:41.078Z,10.63
2018-02-09T09:39:09.075Z,14.93
2018-02-09T09:41:37.091Z,12.40
2018-02-09T09:44:05.128Z,30.67
2018-02-09T09:46:33.181Z,8.40
2018-02-09T09:49:01.195Z,6.60
2018-02-09T09:51:29.171Z,4.43
2018-02-09T09:53:57.298Z,5.33
2018-02-09T09:56:25.351Z,6.20
2018-02-09T09:58:53.383Z,7.00
2018-02-09T10:01:28.120Z,5.40
2018-02-09T10:03:56.116Z,20.07
2018-02-09T10:06:24.248Z,8.33
2018-02-09T10:08:52.285Z,4.30
2018-02-09T10:11:20.332Z,4.53
2018-02-09T10:13:48.392Z,2.67
2018-02-09T10:16:16.338Z,2.10
2018-02-09T10:18:44.290Z,2.37
2018-02-09T10:21:12.292Z,4.50
2018-02-09T10:23:40.422Z,4.67
2018-02-09T10:26:08.428Z,4.27
2018-02-09T10:28:36.513Z,4.60
2018-02-09T10:31:04.458Z,3.70
2018-02-09T10:33:32.391Z,3.40
2018-02-09T10:36:00.392Z,3.30
2018-02-09T10:38:28.368Z,6.37
2018-02-09T10:40:56.359Z,4.67
2018-02-09T10:43:24.278Z,3.33
2018-02-09T10:45:52.270Z,15.10
2018-02-09T10:48:20.320Z,22.20
2018-02-09T10:50:48.345Z,29.80
2018-02-09T10:53:16.352Z,15.80
2018-02-09T10:55:44.415Z,6.73
2018-02-09T10:58:12.428Z,5.57
2018-02-09T11:00:45.984Z,5.90
2018-02-09T11:03:14.816Z,6.00
2018-02-09T11:05:42.855Z,7.83
2018-02-09T11:08:10.871Z,17.40
2018-02-09T11:10:44.529Z,15.07
2018-02-09T11:13:16.381Z,8.70
2018-02-09T11:15:44.355Z,10.30
2018-02-09T11:18:12.655Z,4.70
2018-02-09T11:20:40.698Z,8.77
2018-02-09T11:23:11.118Z,9.43
2018-02-09T11:25:39.802Z,12.50
2018-02-09T11:28:10.743Z,11.97
2018-02-09T11:30:40.627Z,2.90
2018-02-09T11:33:08.687Z,4.60
2018-02-09T11:35:36.706Z,3.30
2018-02-09T11:38:04.746Z,6.53
2018-02-09T11:40:32.733Z,7.10
2018-02-09T11:43:00.730Z,6.63
2018-02-09T11:45:28.682Z,3.27
2018-02-09T11:47:56.705Z,4.63
2018-02-09T11:50:24.663Z,2.10
2018-02-09T11:52:52.668Z,3.10
2018-02-09T11:55:20.679Z,2.30
2018-02-09T11:57:48.687Z,3.17
2018-02-09T12:00:16.710Z,3.90
2018-02-09T12:02:44.715Z,5.70
2018-02-09T12:05:13.367Z,4.90
2018-02-09T12:07:41.350Z,14.20
2018-02-09T12:10:09.326Z,9.10
2018-02-09T12:12:37.874Z,7.77
2018-02-09T12:15:06.254Z,6.60
2018-02-09T12:17:34.611Z,3.90
2018-02-09T12:20:03.010Z,7.90
2018-02-09T12:22:31.369Z,2.47
2018-02-09T12:24:59.766Z,3.83
2018-02-09T12:27:28.125Z,5.03
2018-02-09T12:29:56.535Z,4.17
2018-02-09T12:32:24.897Z,3.63
2018-02-09T12:34:53.278Z,3.70
2018-02-09T12:37:21.657Z,6.80
2018-02-09T12:39:50.195Z,2.50
2018-02-09T12:42:18.700Z,4.70
2018-02-09T12:44:46.994Z,3.47
2018-02-09T12:47:15.777Z,3.57
2018-02-09T12:49:43.958Z,7.53
2018-02-09T12:52:12.640Z,5.20
2018-02-09T12:54:41.530Z,4.40
2018-02-09T12:57:10.010Z,4.37
2018-02-09T12:59:38.385Z,4.43
2018-02-09T13:02:06.850Z,3.07
2018-02-09T13:04:35.245Z,1.80
2018-02-09T13:07:04.246Z,4.40
2018-02-09T13:09:32.496Z,3.43
2018-02-09T13:12:00.934Z,2.90
2018-02-09T13:14:41.334Z,2.97
2018-02-09T13:17:15.777Z,2.67
2018-02-09T13:19:44.149Z,4.50
2018-02-09T13:22:24.323Z,1.80
2018-02-09T13:24:52.685Z,6.83
2018-02-09T13:27:21.686Z,3.43
2018-02-09T13:29:50.054Z,1.70
2018-02-09T13:32:30.518Z,2.87
2018-02-09T13:34:59.002Z,22.73
2018-02-09T13:37:35.361Z,2.50
2018-02-09T13:40:03.857Z,7.57
2018-02-09T13:42:32.119Z,3.30
2018-02-09T13:45:00.707Z,10.87
2018-02-09T13:47:29.692Z,4.17
2018-02-09T13:49:58.017Z,3.27
2018-02-09T13:52:26.653Z,3.10
2018-02-09T13:54:55.134Z,1.97
2018-02-09T13:57:23.524Z,2.97
2018-02-09T13:59:51.973Z,3.63
2018-02-09T14:02:20.683Z,6.37
2018-02-09T14:04:48.668Z,3.80
2018-02-09T14:07:17.312Z,4.20
2018-02-09T14:09:45.462Z,2.60
2018-02-09T14:12:13.423Z,9.00
2018-02-09T14:14:41.440Z,12.20
2018-02-09T14:17:09.462Z,9.73
2018-02-09T14:19:37.404Z,5.43
2018-02-09T14:22:05.331Z,6.90
2018-02-09T14:24:33.291Z,5.53
2018-02-09T14:27:01.226Z,2.77
2018-02-09T14:29:29.234Z,4.10
2018-02-09T14:31:57.207Z,7.13
2018-02-09T14:34:25.195Z,9.87
2018-02-09T14:36:53.275Z,5.77
2018-02-09T14:39:21.234Z,10.53
2018-02-09T14:41:49.238Z,14.50
2018-02-09T14:44:17.190Z,12.50
2018-02-09T14:46:45.216Z,11.10
2018-02-09T14:49:13.271Z,12.67
2018-02-09T14:51:41.318Z,14.13
2018-02-09T14:54:09.392Z,8.00
2018-02-09T14:56:37.433Z,8.63
2018-02-09T14:59:07.755Z,13.20
2018-02-09T15:01:35.711Z,15.93
2018-02-09T15:04:03.669Z,17.63
2018-02-09T15:06:31.714Z,15.20
2018-02-09T15:08:59.754Z,15.30
2018-02-09T15:11:27.849Z,22.87
2018-02-09T15:13:55.854Z,22.20
2018-02-09T15:16:23.837Z,28.20
2018-02-09T15:18:51.754Z,20.73
2018-02-09T15:21:19.719Z,16.20
2018-02-09T15:23:47.792Z,19.57
2018-02-09T15:26:15.760Z,20.30
2018-02-09T15:28:43.747Z,20.83
2018-02-09T15:31:11.673Z,27.80
2018-02-09T15:33:39.734Z,31.23
2018-02-09T15:36:07.731Z,21.87
2018-02-09T15:38:35.785Z,24.27
2018-02-09T15:41:03.730Z,20.57
2018-02-09T15:43:31.677Z,23.93
2018-02-09T15:45:59.674Z,25.87
2018-02-09T15:48:27.699Z,28.57
2018-02-09T15:50:55.773Z,29.50
2018-02-09T15:53:23.693Z,18.97
2018-02-09T15:55:51.678Z,20.13
2018-02-09T15:58:19.697Z,11.30
2018-02-09T16:00:47.623Z,5.70
2018-02-09T16:03:15.614Z,14.23
2018-02-09T16:05:43.700Z,19.10
2018-02-09T16:08:11.690Z,16.47
2018-02-09T16:10:43.007Z,28.17
2018-02-09T16:13:11.457Z,23.20
2018-02-09T16:15:40.021Z,144.83
2018-02-09T16:18:09.841Z,48.90
2018-02-09T16:20:37.857Z,51.60
2018-02-09T16:23:05.853Z,45.23
2018-02-09T16:25:33.836Z,68.00
2018-02-09T16:28:01.955Z,68.40
2018-02-09T16:30:30.053Z,58.20
2018-02-09T16:32:58.146Z,54.73
2018-02-09T16:35:26.109Z,67.37
2018-02-09T16:37:54.086Z,49.30
2018-02-09T16:40:22.054Z,54.57
2018-02-09T16:42:50.010Z,52.70
2018-02-09T16:45:18.011Z,48.10
2018-02-09T16:47:45.998Z,45.10
2018-02-09T16:50:13.999Z,33.03
2018-02-09T16:52:42.029Z,37.70
2018-02-09T16:55:10.016Z,46.97
2018-02-09T16:57:38.074Z,46.67
2018-02-09T17:00:06.046Z,54.50
2018-02-09T17:02:33.966Z,65.83
2018-02-09T17:05:01.913Z,49.10
2018-02-09T17:07:29.853Z,58.27
2018-02-09T17:09:57.862Z,57.33
2018-02-09T17:12:26.533Z,41.00
2018-02-09T17:14:55.570Z,38.57
2018-02-09T17:17:23.566Z,35.60
2018-02-09T17:19:51.711Z,20.93
2018-02-09T17:22:19.829Z,26.43
2018-02-09T17:24:47.808Z,20.73
2018-02-09T17:27:15.801Z,28.73
2018-02-09T17:29:43.772Z,40.10
2018-02-09T17:32:11.730Z,37.03
2018-02-09T17:34:39.709Z,32.20
2018-02-09T17:37:07.798Z,43.33
2018-02-09T17:39:35.882Z,38.83
2018-02-09T17:42:03.819Z,49.47
2018-02-09T17:44:31.855Z,56.10
2018-02-09T17:46:59.837Z,45.70
2018-02-09T17:49:27.842Z,38.13
2018-02-09T17:51:55.783Z,38.30
2018-02-09T17:54:23.792Z,28.30
2018-02-09T17:56:51.811Z,28.97
2018-02-09T17:59:19.726Z,31.60
2018-02-09T18:01:47.729Z,28.67
2018-02-09T18:04:15.758Z,32.60
2018-02-09T18:06:43.742Z,26.03
2018-02-09T18:09:11.779Z,21.63
2018-02-09T18:11:39.746Z,20.30
2018-02-09T18:14:08.204Z,23.97
2018-02-09T18:16:36.173Z,28.97
2018-02-09T18:19:04.119Z,28.87
2018-02-09T18:21:32.106Z,38.27
2018-02-09T18:24:00.066Z,42.23
2018-02-09T18:26:27.930Z,52.90
2018-02-09T18:28:55.915Z,63.03
2018-02-09T18:31:23.859Z,81.63
2018-02-09T18:33:51.878Z,66.20
2018-02-09T18:36:19.883Z,48.00
2018-02-09T18:38:47.943Z,49.30
2018-02-09T18:41:16.842Z,44.57
2018-02-09T18:43:45.101Z,44.97
2018-02-09T18:46:13.212Z,54.87
2018-02-09T18:48:41.221Z,49.67
2018-02-09T18:51:09.570Z,50.47
2018-02-09T18:53:39.635Z,71.70
2018-02-09T18:56:07.657Z,100.37
2018-02-09T18:58:35.606Z,92.33
2018-02-09T19:01:05.149Z,91.83
2018-02-09T19:03:38.917Z,84.60
2018-02-09T19:06:06.924Z,76.67
2018-02-09T19:08:34.913Z,111.70
2018-02-09T19:11:02.886Z,105.50
2018-02-09T19:13:30.894Z,98.80
2018-02-09T19:15:59.407Z,87.30
2018-02-09T19:18:28.749Z,80.97
2018-02-09T19:20:56.771Z,82.30
2018-02-09T19:23:24.769Z,76.57
2018-02-09T19:25:53.841Z,78.23
2018-02-09T19:28:21.881Z,75.00
2018-02-09T19:30:53.431Z,73.87
2018-02-09T19:33:21.578Z,71.93
2018-02-09T19:35:51.141Z,93.70
2018-02-09T19:38:19.788Z,91.03
2018-02-09T19:40:47.802Z,84.10
2018-02-09T19:43:15.798Z,96.03
2018-02-09T19:45:43.807Z,86.20
2018-02-09T19:48:11.781Z,86.43
2018-02-09T19:50:39.795Z,82.07
2018-02-09T19:53:07.782Z,76.17
2018-02-09T19:55:35.793Z,59.00
2018-02-09T19:58:03.799Z,51.80
2018-02-09T20:00:31.767Z,49.97
2018-02-09T20:02:59.826Z,79.23
2018-02-09T20:05:27.797Z,73.23
2018-02-09T20:07:55.778Z,58.70
2018-02-09T20:10:23.839Z,57.90
2018-02-09T20:12:51.766Z,58.80
2018-02-09T20:15:19.799Z,59.90
2018-02-09T20:17:48.543Z,50.77
2018-02-09T20:20:16.485Z,79.53
2018-02-09T20:22:44.490Z,75.00
2018-02-09T20:25:12.491Z,44.07
2018-02-09T20:27:40.551Z,34.70
2018-02-09T20:30:08.535Z,28.37
2018-02-09T20:32:36.619Z,27.27
2018-02-09T20:35:04.642Z,25.77
2018-02-09T20:37:32.643Z,42.27
2018-02-09T20:40:00.616Z,38.97
2018-02-09T20:42:28.640Z,39.60
2018-02-09T20:44:56.636Z,30.20
2018-02-09T20:47:26.015Z,21.57
2018-02-09T20:49:53.981Z,26.87
2018-02-09T20:52:21.997Z,51.03
2018-02-09T20:54:49.992Z,51.50
2018-02-09T20:57:17.904Z,47.97
2018-02-09T20:59:45.993Z,53.20
2018-02-09T21:02:14.026Z,32.27
2018-02-09T21:04:42.354Z,32.90
2018-02-09T21:07:10.333Z,26.83
2018-02-09T21:09:38.287Z,27.27
2018-02-09T21:12:07.969Z,28.30
2018-02-09T21:14:38.906Z,22.10
2018-02-09T21:17:07.275Z,24.07
2018-02-09T21:19:35.334Z,38.27
2018-02-09T21:22:03.271Z,33.73
2018-02-09T21:24:31.213Z,27.70
2018-02-09T21:26:59.208Z,20.40
2018-02-09T21:29:27.251Z,17.43
2018-02-09T21:31:55.286Z,29.40
2018-02-09T21:34:23.282Z,31.47
2018-02-09T21:36:51.314Z,28.73
2018-02-09T21:39:19.298Z,30.37
2018-02-09T21:41:47.305Z,35.60
2018-02-09T21:44:15.319Z,34.60
2018-02-09T21:46:43.265Z,31.60
2018-02-09T21:49:11.262Z,30.20
2018-02-09T21:51:39.334Z,29.37
2018-02-09T21:54:07.275Z,27.90
2018-02-09T21:56:35.282Z,31.20
2018-02-09T21:59:03.277Z,30.63
2018-02-09T22:01:31.258Z,27.17
2018-02-09T22:03:59.214Z,23.90
2018-02-09T22:06:27.206Z,20.53
2018-02-09T22:08:55.225Z,16.53
2018-02-09T22:11:23.191Z,21.50
2018-02-09T22:13:51.199Z,26.33
2018-02-09T22:16:19.241Z,21.97
2018-02-09T22:18:47.230Z,35.30
2018-02-09T22:21:15.974Z,21.70
2018-02-09T22:23:43.940Z,22.20
2018-02-09T22:26:11.928Z,21.10
2018-02-09T22:28:39.913Z,26.73
2018-02-09T22:31:07.913Z,21.20
2018-02-09T22:33:35.941Z,20.90
2018-02-09T22:36:03.870Z,19.70
2018-02-09T22:38:31.806Z,18.00
2018-02-09T22:40:59.795Z,24.10
2018-02-09T22:43:27.762Z,33.93
2018-02-09T22:45:55.743Z,27.67
2018-02-09T22:48:23.762Z,42.30
2018-02-09T22:50:51.731Z,27.43
2018-02-09T22:53:19.694Z,22.50
2018-02-09T22:55:47.715Z,22.77
2018-02-09T22:58:15.671Z,21.40
2018-02-09T23:00:43.758Z,22.63
2018-02-09T23:03:11.765Z,21.87
2018-02-09T23:05:39.784Z,17.20
2018-02-09T23:08:07.866Z,16.33
2018-02-09T23:10:35.823Z,18.10
2018-02-09T23:13:03.780Z,17.30
2018-02-09T23:15:31.725Z,15.17
2018-02-09T23:17:59.730Z,14.97
2018-02-09T23:20:27.677Z,18.70
2018-02-09T23:22:56.097Z,22.10
2018-02-09T23:25:24.013Z,29.13
2018-02-09T23:27:52.130Z,21.10
2018-02-09T23:30:20.110Z,16.90
2018-02-09T23:32:48.066Z,23.77
2018-02-09T23:35:16.034Z,20.63
2018-02-09T23:37:44.105Z,26.37
2018-02-09T23:40:12.038Z,17.40
2018-02-09T23:42:40.028Z,18.50
2018-02-09T23:45:08.002Z,22.70
2018-02-09T23:47:36.014Z,22.77
2018-02-09T23:50:04.042Z,17.07
2018-02-09T23:52:32.004Z,14.57
2018-02-09T23:55:00.053Z,13.60
2018-02-09T23:57:28.015Z,16.13
2018-02-09T23:59:56.019Z,17.27
